sensor_id;sensor_type;location;lat;lon;timestamp;pressure;altitude;pressure_sealevel;temperature;humidity
73171;BME280;61381;50.118;19.962;2022-10-16T00:04:15;98830.81;;;12.07;87.18
73171;BME280;61381;50.118;19.962;2022-10-16T00:09:16;98828.91;;;12.08;89.47
73171;BME280;61381;50.118;19.962;2022-10-16T00:14:17;98833.78;;;12.06;87.57
73171;BME280;61381;50.118;19.962;2022-10-16T00:19:19;98836.19;;;12.07;89.01
73171;BME280;61381;50.118;19.962;2022-10-16T00:24:20;98857.75;;;12.02;90.75
73171;BME280;61381;50.118;19.962;2022-10-16T00:29:21;98852.94;;;11.99;90.15
73171;BME280;61381;50.118;19.962;2022-10-16T00:34:23;98860.75;;;11.95;92.37
73171;BME280;61381;50.118;19.962;2022-10-16T00:39:24;98847.06;;;11.92;92.35
73171;BME280;61381;50.118;19.962;2022-10-16T00:44:47;98868.88;;;11.85;94.58
73171;BME280;61381;50.118;19.962;2022-10-16T00:49:51;98862.94;;;11.88;94.45
73171;BME280;61381;50.118;19.962;2022-10-16T00:54:54;98861.63;;;11.86;95.50
73171;BME280;61381;50.118;19.962;2022-10-16T00:59:56;98866.19;;;11.85;95.04
73171;BME280;61381;50.118;19.962;2022-10-16T01:04:59;98869.41;;;11.82;96.07
73171;BME280;61381;50.118;19.962;2022-10-16T01:10:07;98873.22;;;11.81;96.35
73171;BME280;61381;50.118;19.962;2022-10-16T01:15:16;98863.31;;;11.76;94.95
73171;BME280;61381;50.118;19.962;2022-10-16T01:20:26;98874.50;;;11.84;95.39
73171;BME280;61381;50.118;19.962;2022-10-16T01:25:37;98874.00;;;11.82;92.13
73171;BME280;61381;50.118;19.962;2022-10-16T01:30:42;98864.31;;;11.86;92.65
73171;BME280;61381;50.118;19.962;2022-10-16T01:35:47;98868.59;;;11.87;96.21
73171;BME280;61381;50.118;19.962;2022-10-16T01:40:56;98869.53;;;11.72;96.16
73171;BME280;61381;50.118;19.962;2022-10-16T01:46:00;98872.72;;;11.74;94.70
73171;BME280;61381;50.118;19.962;2022-10-16T01:51:05;98882.91;;;11.77;96.35
73171;BME280;61381;50.118;19.962;2022-10-16T01:56:08;98876.69;;;11.82;95.66
73171;BME280;61381;50.118;19.962;2022-10-16T02:01:13;98883.94;;;11.81;95.41
73171;BME280;61381;50.118;19.962;2022-10-16T02:06:15;98878.84;;;11.80;96.07
73171;BME280;61381;50.118;19.962;2022-10-16T02:11:16;98878.59;;;11.76;96.01
73171;BME280;61381;50.118;19.962;2022-10-16T02:16:19;98889.59;;;11.80;96.09
73171;BME280;61381;50.118;19.962;2022-10-16T02:21:25;98885.00;;;11.80;96.25
73171;BME280;61381;50.118;19.962;2022-10-16T02:26:29;98885.63;;;11.72;95.96
73171;BME280;61381;50.118;19.962;2022-10-16T02:31:35;98885.66;;;11.67;91.08
73171;BME280;61381;50.118;19.962;2022-10-16T02:36:39;98887.28;;;11.68;91.40
73171;BME280;61381;50.118;19.962;2022-10-16T02:41:41;98886.50;;;11.62;92.21
73171;BME280;61381;50.118;19.962;2022-10-16T02:46:43;98886.28;;;11.58;93.53
73171;BME280;61381;50.118;19.962;2022-10-16T02:51:44;98890.38;;;11.51;94.28
73171;BME280;61381;50.118;19.962;2022-10-16T02:56:45;98885.88;;;11.41;93.77
73171;BME280;61381;50.118;19.962;2022-10-16T03:01:47;98893.47;;;11.29;94.39
73171;BME280;61381;50.118;19.962;2022-10-16T03:06:48;98900.53;;;11.19;96.81
73171;BME280;61381;50.118;19.962;2022-10-16T03:11:48;98900.53;;;11.14;98.02
73171;BME280;61381;50.118;19.962;2022-10-16T03:16:51;98904.91;;;11.00;97.77
73171;BME280;61381;50.118;19.962;2022-10-16T03:21:51;98893.69;;;10.93;96.74
73171;BME280;61381;50.118;19.962;2022-10-16T03:26:52;98893.19;;;10.85;97.12
73171;BME280;61381;50.118;19.962;2022-10-16T03:31:55;98910.34;;;10.84;98.17
73171;BME280;61381;50.118;19.962;2022-10-16T03:36:56;98916.63;;;10.54;99.62
73171;BME280;61381;50.118;19.962;2022-10-16T03:41:56;98921.25;;;10.33;100.00
73171;BME280;61381;50.118;19.962;2022-10-16T03:46:59;98928.72;;;10.21;100.00
73171;BME280;61381;50.118;19.962;2022-10-16T03:51:59;98936.22;;;10.13;100.00
73171;BME280;61381;50.118;19.962;2022-10-16T03:57:00;98944.53;;;10.12;100.00
73171;BME280;61381;50.118;19.962;2022-10-16T04:02:03;98941.00;;;10.32;100.00
73171;BME280;61381;50.118;19.962;2022-10-16T04:07:03;98942.13;;;10.36;99.86
73171;BME280;61381;50.118;19.962;2022-10-16T04:12:04;98951.22;;;10.40;100.00
73171;BME280;61381;50.118;19.962;2022-10-16T04:17:06;98956.31;;;10.37;100.00
73171;BME280;61381;50.118;19.962;2022-10-16T04:22:07;98949.34;;;10.25;100.00
73171;BME280;61381;50.118;19.962;2022-10-16T04:27:08;98950.97;;;10.16;100.00
73171;BME280;61381;50.118;19.962;2022-10-16T04:32:10;98947.50;;;10.00;100.00
73171;BME280;61381;50.118;19.962;2022-10-16T04:37:11;98966.25;;;9.90;100.00
73171;BME280;61381;50.118;19.962;2022-10-16T04:42:12;98958.19;;;9.64;100.00
73171;BME280;61381;50.118;19.962;2022-10-16T04:47:14;98962.19;;;9.51;100.00
73171;BME280;61381;50.118;19.962;2022-10-16T04:52:15;98965.59;;;9.26;100.00
73171;BME280;61381;50.118;19.962;2022-10-16T04:57:16;98963.44;;;9.13;100.00
73171;BME280;61381;50.118;19.962;2022-10-16T05:02:18;98964.72;;;9.00;100.00
73171;BME280;61381;50.118;19.962;2022-10-16T05:07:19;98972.75;;;8.95;100.00
73171;BME280;61381;50.118;19.962;2022-10-16T05:12:20;98973.78;;;8.88;100.00
73171;BME280;61381;50.118;19.962;2022-10-16T05:17:22;98973.47;;;8.85;100.00
73171;BME280;61381;50.118;19.962;2022-10-16T05:22:23;98958.53;;;8.89;100.00
73171;BME280;61381;50.118;19.962;2022-10-16T05:27:24;98967.41;;;9.00;100.00
73171;BME280;61381;50.118;19.962;2022-10-16T05:32:26;98985.84;;;9.01;100.00
73171;BME280;61381;50.118;19.962;2022-10-16T05:37:27;98985.63;;;9.13;100.00
73171;BME280;61381;50.118;19.962;2022-10-16T05:42:28;98981.69;;;9.31;100.00
73171;BME280;61381;50.118;19.962;2022-10-16T05:47:30;98981.19;;;9.60;100.00
73171;BME280;61381;50.118;19.962;2022-10-16T05:52:31;98980.94;;;10.03;100.00
73171;BME280;61381;50.118;19.962;2022-10-16T05:57:32;98981.75;;;10.39;100.00
73171;BME280;61381;50.118;19.962;2022-10-16T06:02:34;98991.91;;;10.47;99.41
73171;BME280;61381;50.118;19.962;2022-10-16T06:07:36;98996.72;;;10.66;98.50
73171;BME280;61381;50.118;19.962;2022-10-16T06:12:36;99008.50;;;10.65;99.86
73171;BME280;61381;50.118;19.962;2022-10-16T06:17:39;99016.47;;;10.85;97.18
73171;BME280;61381;50.118;19.962;2022-10-16T06:22:40;99018.03;;;11.02;96.86
73171;BME280;61381;50.118;19.962;2022-10-16T06:27:40;99032.38;;;11.37;95.18
73171;BME280;61381;50.118;19.962;2022-10-16T06:32:43;99041.84;;;11.69;93.36
73171;BME280;61381;50.118;19.962;2022-10-16T06:37:44;99055.69;;;11.91;91.75
73171;BME280;61381;50.118;19.962;2022-10-16T06:42:44;99056.38;;;12.42;90.93
73171;BME280;61381;50.118;19.962;2022-10-16T06:47:46;99064.09;;;13.07;87.50
73171;BME280;61381;50.118;19.962;2022-10-16T06:52:47;99070.09;;;13.47;83.82
73171;BME280;61381;50.118;19.962;2022-10-16T06:57:48;99071.66;;;13.72;82.88
73171;BME280;61381;50.118;19.962;2022-10-16T07:02:51;99078.28;;;13.80;82.08
73171;BME280;61381;50.118;19.962;2022-10-16T07:07:51;99083.41;;;14.34;80.14
73171;BME280;61381;50.118;19.962;2022-10-16T07:12:52;99081.94;;;14.74;76.29
73171;BME280;61381;50.118;19.962;2022-10-16T07:17:54;99078.78;;;15.00;76.57
73171;BME280;61381;50.118;19.962;2022-10-16T07:22:55;99091.38;;;15.19;76.04
73171;BME280;61381;50.118;19.962;2022-10-16T07:27:56;99089.56;;;15.56;73.92
73171;BME280;61381;50.118;19.962;2022-10-16T07:32:58;99091.22;;;15.93;71.40
73171;BME280;61381;50.118;19.962;2022-10-16T07:37:59;99086.63;;;16.16;71.72
73171;BME280;61381;50.118;19.962;2022-10-16T07:43:00;99088.66;;;16.33;69.66
73171;BME280;61381;50.118;19.962;2022-10-16T07:48:02;99093.91;;;16.52;69.57
73171;BME280;61381;50.118;19.962;2022-10-16T07:53:03;99098.66;;;16.78;69.26
73171;BME280;61381;50.118;19.962;2022-10-16T07:58:04;99101.06;;;17.11;67.39
73171;BME280;61381;50.118;19.962;2022-10-16T08:03:08;99098.78;;;17.36;66.63
73171;BME280;61381;50.118;19.962;2022-10-16T08:08:12;99108.72;;;17.67;65.45
73171;BME280;61381;50.118;19.962;2022-10-16T08:13:13;99107.88;;;17.48;64.42
73171;BME280;61381;50.118;19.962;2022-10-16T08:18:16;99117.41;;;17.37;65.43
73171;BME280;61381;50.118;19.962;2022-10-16T08:23:17;99111.78;;;17.25;64.71
73171;BME280;61381;50.118;19.962;2022-10-16T08:28:17;99116.53;;;17.19;64.11
73171;BME280;61381;50.118;19.962;2022-10-16T08:33:20;99119.13;;;17.33;63.23
73171;BME280;61381;50.118;19.962;2022-10-16T08:38:21;99118.63;;;17.14;63.98
73171;BME280;61381;50.118;19.962;2022-10-16T08:43:33;99126.22;;;17.52;64.38
73171;BME280;61381;50.118;19.962;2022-10-16T08:48:45;99135.75;;;17.89;62.50
73171;BME280;61381;50.118;19.962;2022-10-16T08:53:49;99127.75;;;18.54;60.51
73171;BME280;61381;50.118;19.962;2022-10-16T08:58:53;99126.41;;;18.95;58.83
73171;BME280;61381;50.118;19.962;2022-10-16T09:04:13;99131.63;;;19.48;57.14
73171;BME280;61381;50.118;19.962;2022-10-16T09:09:45;99136.72;;;20.51;53.63
73171;BME280;61381;50.118;19.962;2022-10-16T09:14:56;99138.06;;;20.24;54.61
73171;BME280;61381;50.118;19.962;2022-10-16T09:20:13;99139.94;;;20.11;56.07
73171;BME280;61381;50.118;19.962;2022-10-16T09:25:20;99144.22;;;20.33;55.15
73171;BME280;61381;50.118;19.962;2022-10-16T09:30:29;99147.16;;;20.07;55.43
73171;BME280;61381;50.118;19.962;2022-10-16T09:35:44;99149.06;;;20.27;55.30
73171;BME280;61381;50.118;19.962;2022-10-16T09:41:14;99143.56;;;20.36;55.02
73171;BME280;61381;50.118;19.962;2022-10-16T09:46:24;99144.38;;;20.70;54.73
73171;BME280;61381;50.118;19.962;2022-10-16T09:51:28;99153.72;;;20.69;54.60
73171;BME280;61381;50.118;19.962;2022-10-16T09:56:32;99152.38;;;20.75;54.49
73171;BME280;61381;50.118;19.962;2022-10-16T10:01:37;99151.34;;;20.25;56.33
73171;BME280;61381;50.118;19.962;2022-10-16T10:06:44;99156.16;;;20.62;53.87
73171;BME280;61381;50.118;19.962;2022-10-16T10:11:51;99147.44;;;20.69;53.64
73171;BME280;61381;50.118;19.962;2022-10-16T10:17:11;99156.22;;;20.74;53.91
73171;BME280;61381;50.118;19.962;2022-10-16T10:22:16;99153.28;;;20.79;53.30
73171;BME280;61381;50.118;19.962;2022-10-16T10:27:17;99155.88;;;21.22;53.12
73171;BME280;61381;50.118;19.962;2022-10-16T10:32:26;99147.69;;;21.22;55.94
73171;BME280;61381;50.118;19.962;2022-10-16T10:37:45;99154.28;;;21.45;51.43
73171;BME280;61381;50.118;19.962;2022-10-16T10:42:54;99151.56;;;21.45;51.16
73171;BME280;61381;50.118;19.962;2022-10-16T10:48:12;99152.25;;;21.67;51.02
73171;BME280;61381;50.118;19.962;2022-10-16T10:53:37;99142.88;;;22.05;50.07
73171;BME280;61381;50.118;19.962;2022-10-16T10:59:04;99147.16;;;21.78;50.98
73171;BME280;61381;50.118;19.962;2022-10-16T11:04:40;99138.72;;;21.95;52.10
73171;BME280;61381;50.118;19.962;2022-10-16T11:09:50;99134.31;;;22.19;49.15
73171;BME280;61381;50.118;19.962;2022-10-16T11:14:57;99139.63;;;22.40;49.74
73171;BME280;61381;50.118;19.962;2022-10-16T11:20:05;99138.06;;;22.14;49.54
73171;BME280;61381;50.118;19.962;2022-10-16T11:25:16;99142.94;;;21.68;51.55
73171;BME280;61381;50.118;19.962;2022-10-16T11:30:21;99139.78;;;20.83;52.73
73171;BME280;61381;50.118;19.962;2022-10-16T11:35:29;99141.50;;;20.88;53.95
73171;BME280;61381;50.118;19.962;2022-10-16T11:40:37;99135.78;;;21.26;55.43
73171;BME280;61381;50.118;19.962;2022-10-16T11:45:42;99135.66;;;21.10;56.24
73171;BME280;61381;50.118;19.962;2022-10-16T11:50:49;99125.03;;;20.96;55.86
73171;BME280;61381;50.118;19.962;2022-10-16T11:55:53;99134.72;;;21.06;55.06
73171;BME280;61381;50.118;19.962;2022-10-16T12:00:59;99142.91;;;21.18;55.69
73171;BME280;61381;50.118;19.962;2022-10-16T12:06:14;99137.81;;;21.17;55.50
73171;BME280;61381;50.118;19.962;2022-10-16T12:11:34;99130.88;;;21.07;54.97
73171;BME280;61381;50.118;19.962;2022-10-16T12:16:37;99143.69;;;21.19;56.13
73171;BME280;61381;50.118;19.962;2022-10-16T12:21:38;99134.75;;;21.31;54.92
73171;BME280;61381;50.118;19.962;2022-10-16T12:26:45;99138.41;;;21.47;54.90
73171;BME280;61381;50.118;19.962;2022-10-16T12:31:48;99142.97;;;21.55;53.22
73171;BME280;61381;50.118;19.962;2022-10-16T12:36:50;99137.72;;;21.38;53.57
73171;BME280;61381;50.118;19.962;2022-10-16T12:42:03;99141.31;;;21.42;53.39
73171;BME280;61381;50.118;19.962;2022-10-16T12:47:18;99144.41;;;21.65;51.79
73171;BME280;61381;50.118;19.962;2022-10-16T12:52:27;99148.81;;;22.07;51.72
73171;BME280;61381;50.118;19.962;2022-10-16T12:57:38;99148.38;;;21.80;51.64
73171;BME280;61381;50.118;19.962;2022-10-16T13:02:53;99154.31;;;21.58;52.53
73171;BME280;61381;50.118;19.962;2022-10-16T13:08:11;99160.06;;;21.44;52.52
73171;BME280;61381;50.118;19.962;2022-10-16T13:13:44;99166.69;;;21.43;53.69
73171;BME280;61381;50.118;19.962;2022-10-16T13:18:59;99166.53;;;21.39;53.12
73171;BME280;61381;50.118;19.962;2022-10-16T13:24:13;99164.72;;;21.31;54.11
73171;BME280;61381;50.118;19.962;2022-10-16T13:29:18;99172.09;;;21.18;53.44
73171;BME280;61381;50.118;19.962;2022-10-16T13:34:21;99173.09;;;20.67;54.46
73171;BME280;61381;50.118;19.962;2022-10-16T13:39:24;99180.47;;;20.67;55.46
73171;BME280;61381;50.118;19.962;2022-10-16T13:44:27;99171.50;;;20.66;55.32
73171;BME280;61381;50.118;19.962;2022-10-16T13:49:28;99179.34;;;20.68;55.77
73171;BME280;61381;50.118;19.962;2022-10-16T13:54:29;99192.06;;;20.13;57.31
73171;BME280;61381;50.118;19.962;2022-10-16T13:59:35;99201.59;;;19.98;57.21
73171;BME280;61381;50.118;19.962;2022-10-16T14:04:38;99199.66;;;19.77;59.03
73171;BME280;61381;50.118;19.962;2022-10-16T14:09:40;99193.44;;;19.68;59.73
73171;BME280;61381;50.118;19.962;2022-10-16T14:14:44;99205.94;;;19.60;60.33
73171;BME280;61381;50.118;19.962;2022-10-16T14:19:46;99198.66;;;19.43;60.74
73171;BME280;61381;50.118;19.962;2022-10-16T14:24:48;99187.38;;;19.24;61.71
73171;BME280;61381;50.118;19.962;2022-10-16T14:29:50;99195.56;;;19.06;62.90
73171;BME280;61381;50.118;19.962;2022-10-16T14:34:53;99192.22;;;19.01;61.98
73171;BME280;61381;50.118;19.962;2022-10-16T14:39:55;99188.56;;;18.97;61.89
73171;BME280;61381;50.118;19.962;2022-10-16T14:44:57;99184.88;;;18.84;63.45
73171;BME280;61381;50.118;19.962;2022-10-16T14:49:58;99183.59;;;18.81;62.04
73171;BME280;61381;50.118;19.962;2022-10-16T14:54:59;99179.47;;;18.75;62.90
73171;BME280;61381;50.118;19.962;2022-10-16T15:00:02;99190.16;;;18.54;64.63
73171;BME280;61381;50.118;19.962;2022-10-16T15:05:12;99198.16;;;18.42;65.95
73171;BME280;61381;50.118;19.962;2022-10-16T15:10:15;99206.59;;;18.31;66.78
73171;BME280;61381;50.118;19.962;2022-10-16T15:15:43;99216.47;;;18.18;67.50
73171;BME280;61381;50.118;19.962;2022-10-16T15:20:44;99233.22;;;18.03;68.05
73171;BME280;61381;50.118;19.962;2022-10-16T15:25:51;99232.94;;;17.82;68.68
73171;BME280;61381;50.118;19.962;2022-10-16T15:30:55;99228.38;;;17.51;69.97
73171;BME280;61381;50.118;19.962;2022-10-16T15:35:56;99231.88;;;17.20;71.36
73171;BME280;61381;50.118;19.962;2022-10-16T15:40:57;99241.63;;;16.99;71.65
73171;BME280;61381;50.118;19.962;2022-10-16T15:46:02;99242.97;;;16.73;72.61
73171;BME280;61381;50.118;19.962;2022-10-16T15:51:05;99240.69;;;16.44;74.40
73171;BME280;61381;50.118;19.962;2022-10-16T15:56:08;99243.03;;;16.09;76.38
73171;BME280;61381;50.118;19.962;2022-10-16T16:01:11;99244.44;;;15.79;77.62
73171;BME280;61381;50.118;19.962;2022-10-16T16:06:13;99249.91;;;15.60;78.84
73171;BME280;61381;50.118;19.962;2022-10-16T16:11:15;99247.38;;;15.49;79.61
73171;BME280;61381;50.118;19.962;2022-10-16T16:16:18;99245.25;;;15.32;80.65
73171;BME280;61381;50.118;19.962;2022-10-16T16:21:19;99250.00;;;15.08;81.50
73171;BME280;61381;50.118;19.962;2022-10-16T16:26:23;99259.38;;;14.77;83.72
73171;BME280;61381;50.118;19.962;2022-10-16T16:31:26;99273.50;;;14.50;85.17
73171;BME280;61381;50.118;19.962;2022-10-16T16:36:28;99275.38;;;14.31;86.15
73171;BME280;61381;50.118;19.962;2022-10-16T16:41:29;99292.41;;;14.02;88.19
73171;BME280;61381;50.118;19.962;2022-10-16T16:46:32;99297.34;;;14.19;86.96
73171;BME280;61381;50.118;19.962;2022-10-16T16:51:33;99302.63;;;14.05;87.83
73171;BME280;61381;50.118;19.962;2022-10-16T16:56:34;99296.75;;;13.98;88.02
73171;BME280;61381;50.118;19.962;2022-10-16T17:01:36;99300.66;;;13.86;88.89
73171;BME280;61381;50.118;19.962;2022-10-16T17:06:37;99309.81;;;13.85;89.49
73171;BME280;61381;50.118;19.962;2022-10-16T17:11:38;99317.97;;;13.51;90.71
73171;BME280;61381;50.118;19.962;2022-10-16T17:16:43;99323.25;;;13.27;92.05
73171;BME280;61381;50.118;19.962;2022-10-16T17:21:47;99322.00;;;13.14;93.78
73171;BME280;61381;50.118;19.962;2022-10-16T17:26:49;99339.78;;;13.10;94.41
73171;BME280;61381;50.118;19.962;2022-10-16T17:31:51;99342.78;;;13.03;94.14
73171;BME280;61381;50.118;19.962;2022-10-16T17:36:52;99346.47;;;12.67;95.56
73171;BME280;61381;50.118;19.962;2022-10-16T17:41:53;99351.94;;;12.57;97.33
73171;BME280;61381;50.118;19.962;2022-10-16T17:46:55;99353.63;;;12.38;98.01
73171;BME280;61381;50.118;19.962;2022-10-16T17:51:56;99358.44;;;12.36;99.03
73171;BME280;61381;50.118;19.962;2022-10-16T17:56:57;99357.63;;;12.40;97.80
73171;BME280;61381;50.118;19.962;2022-10-16T18:01:59;99366.31;;;12.11;99.07
73171;BME280;61381;50.118;19.962;2022-10-16T18:07:00;99367.94;;;11.97;99.80
73171;BME280;61381;50.118;19.962;2022-10-16T18:12:01;99370.91;;;11.75;100.00
73171;BME280;61381;50.118;19.962;2022-10-16T18:17:03;99381.91;;;11.63;100.00
73171;BME280;61381;50.118;19.962;2022-10-16T18:22:04;99383.53;;;11.54;100.00
73171;BME280;61381;50.118;19.962;2022-10-16T18:27:05;99396.41;;;11.41;100.00
73171;BME280;61381;50.118;19.962;2022-10-16T18:32:07;99407.66;;;11.59;100.00
73171;BME280;61381;50.118;19.962;2022-10-16T18:37:08;99418.94;;;11.82;100.00
73171;BME280;61381;50.118;19.962;2022-10-16T18:42:09;99412.78;;;12.02;100.00
73171;BME280;61381;50.118;19.962;2022-10-16T18:47:12;99424.06;;;11.83;100.00
73171;BME280;61381;50.118;19.962;2022-10-16T18:52:13;99434.22;;;11.45;100.00
73171;BME280;61381;50.118;19.962;2022-10-16T18:57:13;99436.34;;;11.33;100.00
73171;BME280;61381;50.118;19.962;2022-10-16T19:02:16;99446.78;;;11.19;100.00
73171;BME280;61381;50.118;19.962;2022-10-16T19:07:17;99447.25;;;10.95;100.00
73171;BME280;61381;50.118;19.962;2022-10-16T19:12:17;99459.84;;;10.95;100.00
73171;BME280;61381;50.118;19.962;2022-10-16T19:17:20;99463.63;;;10.94;100.00
73171;BME280;61381;50.118;19.962;2022-10-16T19:22:21;99472.19;;;10.91;100.00
73171;BME280;61381;50.118;19.962;2022-10-16T19:27:21;99486.13;;;10.93;100.00
73171;BME280;61381;50.118;19.962;2022-10-16T19:32:24;99490.88;;;10.75;100.00
73171;BME280;61381;50.118;19.962;2022-10-16T19:37:26;99482.44;;;10.56;100.00
73171;BME280;61381;50.118;19.962;2022-10-16T19:42:27;99482.63;;;10.39;100.00
73171;BME280;61381;50.118;19.962;2022-10-16T19:47:30;99484.28;;;10.13;100.00
73171;BME280;61381;50.118;19.962;2022-10-16T19:52:31;99488.84;;;10.12;100.00
73171;BME280;61381;50.118;19.962;2022-10-16T19:57:33;99484.94;;;9.93;100.00
73171;BME280;61381;50.118;19.962;2022-10-16T20:02:35;99484.31;;;9.86;100.00
73171;BME280;61381;50.118;19.962;2022-10-16T20:07:36;99505.38;;;9.77;100.00
73171;BME280;61381;50.118;19.962;2022-10-16T20:12:37;99497.91;;;9.79;100.00
73171;BME280;61381;50.118;19.962;2022-10-16T20:17:39;99501.75;;;9.88;100.00
73171;BME280;61381;50.118;19.962;2022-10-16T20:22:40;99517.75;;;9.83;100.00
73171;BME280;61381;50.118;19.962;2022-10-16T20:27:40;99522.63;;;9.59;100.00
73171;BME280;61381;50.118;19.962;2022-10-16T20:32:43;99521.69;;;9.48;100.00
73171;BME280;61381;50.118;19.962;2022-10-16T20:37:43;99527.88;;;9.54;100.00
73171;BME280;61381;50.118;19.962;2022-10-16T20:42:44;99534.91;;;9.60;100.00
73171;BME280;61381;50.118;19.962;2022-10-16T20:47:46;99550.38;;;9.53;100.00
73171;BME280;61381;50.118;19.962;2022-10-16T20:52:47;99555.00;;;9.62;100.00
73171;BME280;61381;50.118;19.962;2022-10-16T20:57:48;99549.53;;;9.52;100.00
73171;BME280;61381;50.118;19.962;2022-10-16T21:02:51;99557.47;;;9.20;100.00
73171;BME280;61381;50.118;19.962;2022-10-16T21:07:52;99561.31;;;9.07;100.00
73171;BME280;61381;50.118;19.962;2022-10-16T21:12:53;99566.34;;;9.25;100.00
73171;BME280;61381;50.118;19.962;2022-10-16T21:17:55;99566.06;;;9.05;100.00
73171;BME280;61381;50.118;19.962;2022-10-16T21:22:56;99564.28;;;8.88;100.00
73171;BME280;61381;50.118;19.962;2022-10-16T21:27:57;99574.00;;;8.78;100.00
73171;BME280;61381;50.118;19.962;2022-10-16T21:32:59;99582.09;;;8.83;100.00
73171;BME280;61381;50.118;19.962;2022-10-16T21:38:00;99580.66;;;8.75;100.00
73171;BME280;61381;50.118;19.962;2022-10-16T21:43:01;99583.56;;;8.73;100.00
73171;BME280;61381;50.118;19.962;2022-10-16T21:48:03;99585.41;;;8.90;100.00
73171;BME280;61381;50.118;19.962;2022-10-16T21:53:04;99591.72;;;8.84;100.00
73171;BME280;61381;50.118;19.962;2022-10-16T21:58:05;99605.84;;;8.62;100.00
73171;BME280;61381;50.118;19.962;2022-10-16T22:03:07;99604.88;;;8.68;100.00
73171;BME280;61381;50.118;19.962;2022-10-16T22:08:08;99608.41;;;8.57;100.00
73171;BME280;61381;50.118;19.962;2022-10-16T22:13:08;99618.81;;;8.42;100.00
73171;BME280;61381;50.118;19.962;2022-10-16T22:18:11;99611.09;;;8.28;100.00
73171;BME280;61381;50.118;19.962;2022-10-16T22:23:11;99621.66;;;8.35;100.00
73171;BME280;61381;50.118;19.962;2022-10-16T22:28:13;99623.63;;;8.56;100.00
73171;BME280;61381;50.118;19.962;2022-10-16T22:33:15;99627.69;;;8.59;100.00
73171;BME280;61381;50.118;19.962;2022-10-16T22:38:16;99632.97;;;8.42;100.00
73171;BME280;61381;50.118;19.962;2022-10-16T22:43:17;99633.28;;;8.29;100.00
73171;BME280;61381;50.118;19.962;2022-10-16T22:48:19;99631.44;;;8.29;100.00
73171;BME280;61381;50.118;19.962;2022-10-16T22:53:20;99632.63;;;8.50;100.00
73171;BME280;61381;50.118;19.962;2022-10-16T22:58:21;99635.06;;;8.52;100.00
73171;BME280;61381;50.118;19.962;2022-10-16T23:03:24;99634.50;;;8.67;100.00
73171;BME280;61381;50.118;19.962;2022-10-16T23:08:24;99629.47;;;8.70;100.00
73171;BME280;61381;50.118;19.962;2022-10-16T23:13:26;99635.59;;;8.71;100.00
73171;BME280;61381;50.118;19.962;2022-10-16T23:18:28;99637.41;;;8.65;100.00
73171;BME280;61381;50.118;19.962;2022-10-16T23:23:29;99642.22;;;8.51;100.00
73171;BME280;61381;50.118;19.962;2022-10-16T23:28:29;99640.91;;;8.37;100.00
73171;BME280;61381;50.118;19.962;2022-10-16T23:33:33;99643.38;;;8.55;100.00
73171;BME280;61381;50.118;19.962;2022-10-16T23:38:35;99649.38;;;8.46;100.00
73171;BME280;61381;50.118;19.962;2022-10-16T23:43:36;99656.00;;;8.31;100.00
73171;BME280;61381;50.118;19.962;2022-10-16T23:48:39;99662.22;;;8.20;100.00
73171;BME280;61381;50.118;19.962;2022-10-16T23:53:40;99659.81;;;8.18;100.00
73171;BME280;61381;50.118;19.962;2022-10-16T23:58:41;99665.81;;;8.26;100.00
